Halma, Minnesota
Current Conditions -  °F | °C
As of 4:13 AM on Tuesday 21 Oct 2014 (Local Time) from KHCO Reporting Station
Clear Clear  
Wind Chill: 32°   Ceiling: Unl
Heat Index: 39°   Visibility: 10mi
Dew Point: 37°   Wind: 12mph
Humidity: 93%   Direction: 140°SE
Pressure: 30.05"   Gusts: NA
Location:  48.66°N, 96.6°W
Report Text: KHCO 210913Z AUTO 14010KT 10SM CLR 04/03 A3005 RMK AO2
Loading
Personal Weather Stations






























Interactive Weather Map
Tropical Storm Tracking
New forecast layout! Learn more

10-Day Weather Forecast

Advertisements
Track Severe Weather on mobile